Vernon, TX

4:02 PM CDT on August 29, 2015 (GMT -0500)
Vernon | | Change Station
CLOSE
Current Station
Airport
Location: Vernon,
Elevation: 1266 ft
Nearby Weather Stations

Elev 1266 ft 34.23 °N, 99.28 °W | Updated 7 minutes ago

Overcast
Overcast
93 °F
Feels Like 91 °F
N
4
Wind Variable Wind from NNE

Today
High -- | Low -- °F
--% Chance of Precip.
Yesterday
High -- | Low -- °F
Precip. -- in
7:08 AM 8:07 PM
Full, 100% visible
Pressure 29.98 in
Visibility 10.0 miles
Clouds Clear
Heat Index 91 °F
Dew Point 54 °F
Humidity 27%
Rainfall 0.00 in
Snow Depth Not available.
UV 7 out of 12
Pollen 8.80 out of 12
Air Quality Not available.
Flu Activity Not available.
METAR KF05 292055Z AUTO 02003KT 10SM CLR 34/13 A2998 RMK AO1 T03390125
Pressure 29.98 in
Visibility 10.0 miles
Clouds Clear
Heat Index 91 °F
Dew Point 54 °F
Humidity 27%
Rainfall 0.00 in
Snow Depth Not available.
UV 7 out of 12
Pollen 8.80 out of 12
Air Quality Not available.
Flu Activity Not available.
METAR KF05 292055Z AUTO 02003KT 10SM CLR 34/13 A2998 RMK AO1 T03390125

10-Day Weather Forecast

×

Almanac

Astronomy

Aug. 29, 2015 Rise Set
Actual Time
Civil Twilight
Nautical Twilight
Astronomical Twilight
Moon
Length of Visible Light
Length of Day
Tomorrow will be .
, % of the Moon is Illuminated

Today's Extremes

State Highs State Lows

Community

WunderPhotos

Upload Photos

1,850,800 photos uploaded!

WunderBlogs® & News

Nearby

Air Quality

  Air Quality AQ Index Pollutant
Not available.

Snow Depth

Station Depth Elevation

Earthquake Activity

City Distance Mag. Time & Date
Minimum magnitude displayed is 2.5.

Coastal Water Temperatures

Place Temperature

Stations

Nearby Weather Stations

Station Location Temp. Windchill Dew Point Humidity Wind Precip. Elev Updated Type